sensor_id;sensor_type;location;lat;lon;timestamp;P1;durP1;ratioP1;P2;durP2;ratioP2
8564;SDS011;4320;51.498;6.556;2023-05-07T00:01:35;13.18;;;11.07;;
8564;SDS011;4320;51.498;6.556;2023-05-07T00:04:00;14.13;;;11.90;;
8564;SDS011;4320;51.498;6.556;2023-05-07T00:06:27;15.75;;;12.70;;
8564;SDS011;4320;51.498;6.556;2023-05-07T00:08:53;14.35;;;12.68;;
8564;SDS011;4320;51.498;6.556;2023-05-07T00:11:19;14.32;;;12.10;;
8564;SDS011;4320;51.498;6.556;2023-05-07T00:13:45;13.50;;;12.05;;
8564;SDS011;4320;51.498;6.556;2023-05-07T00:16:11;13.77;;;12.27;;
8564;SDS011;4320;51.498;6.556;2023-05-07T00:18:37;16.13;;;12.20;;
8564;SDS011;4320;51.498;6.556;2023-05-07T00:21:02;15.32;;;13.20;;
8564;SDS011;4320;51.498;6.556;2023-05-07T00:23:28;16.60;;;13.75;;
8564;SDS011;4320;51.498;6.556;2023-05-07T00:25:54;14.45;;;12.30;;
8564;SDS011;4320;51.498;6.556;2023-05-07T00:28:19;17.75;;;12.88;;
8564;SDS011;4320;51.498;6.556;2023-05-07T00:30:45;15.10;;;12.98;;
8564;SDS011;4320;51.498;6.556;2023-05-07T00:33:10;19.52;;;13.98;;
8564;SDS011;4320;51.498;6.556;2023-05-07T00:35:36;16.88;;;13.75;;
8564;SDS011;4320;51.498;6.556;2023-05-07T00:38:02;16.15;;;14.15;;
8564;SDS011;4320;51.498;6.556;2023-05-07T00:40:27;18.85;;;14.90;;
8564;SDS011;4320;51.498;6.556;2023-05-07T00:42:53;16.58;;;13.13;;
8564;SDS011;4320;51.498;6.556;2023-05-07T00:45:22;17.75;;;14.43;;
8564;SDS011;4320;51.498;6.556;2023-05-07T00:47:54;18.88;;;14.65;;
8564;SDS011;4320;51.498;6.556;2023-05-07T00:50:24;17.35;;;14.38;;
8564;SDS011;4320;51.498;6.556;2023-05-07T00:52:51;16.13;;;14.52;;
8564;SDS011;4320;51.498;6.556;2023-05-07T00:55:17;19.00;;;15.23;;
8564;SDS011;4320;51.498;6.556;2023-05-07T00:57:43;17.83;;;14.23;;
8564;SDS011;4320;51.498;6.556;2023-05-07T01:00:10;18.38;;;14.43;;
8564;SDS011;4320;51.498;6.556;2023-05-07T01:02:40;18.88;;;15.20;;
8564;SDS011;4320;51.498;6.556;2023-05-07T01:05:07;18.52;;;14.80;;
8564;SDS011;4320;51.498;6.556;2023-05-07T01:07:36;15.95;;;14.15;;
8564;SDS011;4320;51.498;6.556;2023-05-07T01:10:04;17.95;;;15.15;;
8564;SDS011;4320;51.498;6.556;2023-05-07T01:12:31;19.48;;;14.48;;
8564;SDS011;4320;51.498;6.556;2023-05-07T01:14:57;18.95;;;14.55;;
8564;SDS011;4320;51.498;6.556;2023-05-07T01:17:23;19.75;;;14.77;;
8564;SDS011;4320;51.498;6.556;2023-05-07T01:19:49;16.45;;;14.73;;
8564;SDS011;4320;51.498;6.556;2023-05-07T01:22:17;18.63;;;15.60;;
8564;SDS011;4320;51.498;6.556;2023-05-07T01:25:06;19.25;;;15.05;;
8564;SDS011;4320;51.498;6.556;2023-05-07T01:27:33;17.38;;;14.93;;
8564;SDS011;4320;51.498;6.556;2023-05-07T01:30:00;19.05;;;15.15;;
8564;SDS011;4320;51.498;6.556;2023-05-07T01:32:29;18.90;;;15.70;;
8564;SDS011;4320;51.498;6.556;2023-05-07T01:35:00;19.42;;;15.93;;
8564;SDS011;4320;51.498;6.556;2023-05-07T01:37:30;20.90;;;15.32;;
8564;SDS011;4320;51.498;6.556;2023-05-07T01:39:55;17.33;;;15.18;;
8564;SDS011;4320;51.498;6.556;2023-05-07T01:42:22;19.13;;;15.75;;
8564;SDS011;4320;51.498;6.556;2023-05-07T01:44:48;18.95;;;16.08;;
8564;SDS011;4320;51.498;6.556;2023-05-07T01:47:13;17.42;;;15.63;;
8564;SDS011;4320;51.498;6.556;2023-05-07T01:49:39;18.00;;;15.50;;
8564;SDS011;4320;51.498;6.556;2023-05-07T01:52:06;19.98;;;16.42;;
8564;SDS011;4320;51.498;6.556;2023-05-07T01:54:32;24.67;;;16.67;;
8564;SDS011;4320;51.498;6.556;2023-05-07T01:56:58;21.98;;;17.15;;
8564;SDS011;4320;51.498;6.556;2023-05-07T01:59:25;18.60;;;15.48;;
8564;SDS011;4320;51.498;6.556;2023-05-07T02:01:50;18.92;;;15.95;;
8564;SDS011;4320;51.498;6.556;2023-05-07T02:04:17;24.02;;;15.85;;
8564;SDS011;4320;51.498;6.556;2023-05-07T02:06:42;18.90;;;15.10;;
8564;SDS011;4320;51.498;6.556;2023-05-07T02:09:08;18.05;;;16.13;;
8564;SDS011;4320;51.498;6.556;2023-05-07T02:11:34;18.38;;;16.00;;
8564;SDS011;4320;51.498;6.556;2023-05-07T02:14:00;21.63;;;16.67;;
8564;SDS011;4320;51.498;6.556;2023-05-07T02:16:25;19.85;;;16.40;;
8564;SDS011;4320;51.498;6.556;2023-05-07T02:18:51;19.13;;;17.13;;
8564;SDS011;4320;51.498;6.556;2023-05-07T02:21:17;20.15;;;17.45;;
8564;SDS011;4320;51.498;6.556;2023-05-07T02:23:42;22.63;;;16.35;;
8564;SDS011;4320;51.498;6.556;2023-05-07T02:26:08;21.10;;;16.58;;
8564;SDS011;4320;51.498;6.556;2023-05-07T02:28:34;19.05;;;16.75;;
8564;SDS011;4320;51.498;6.556;2023-05-07T02:31:03;18.55;;;15.82;;
8564;SDS011;4320;51.498;6.556;2023-05-07T02:33:29;20.60;;;16.75;;
8564;SDS011;4320;51.498;6.556;2023-05-07T02:35:55;20.75;;;16.52;;
8564;SDS011;4320;51.498;6.556;2023-05-07T02:38:21;21.20;;;16.52;;
8564;SDS011;4320;51.498;6.556;2023-05-07T02:40:47;19.30;;;15.88;;
8564;SDS011;4320;51.498;6.556;2023-05-07T02:43:13;21.40;;;16.45;;
8564;SDS011;4320;51.498;6.556;2023-05-07T02:45:38;20.35;;;16.23;;
8564;SDS011;4320;51.498;6.556;2023-05-07T02:48:04;20.08;;;16.50;;
8564;SDS011;4320;51.498;6.556;2023-05-07T02:50:31;18.95;;;16.05;;
8564;SDS011;4320;51.498;6.556;2023-05-07T02:52:57;22.13;;;18.02;;
8564;SDS011;4320;51.498;6.556;2023-05-07T02:55:23;21.73;;;17.58;;
8564;SDS011;4320;51.498;6.556;2023-05-07T02:57:49;20.67;;;16.77;;
8564;SDS011;4320;51.498;6.556;2023-05-07T03:00:16;20.90;;;17.63;;
8564;SDS011;4320;51.498;6.556;2023-05-07T03:02:43;20.33;;;17.30;;
8564;SDS011;4320;51.498;6.556;2023-05-07T03:05:09;24.33;;;18.25;;
8564;SDS011;4320;51.498;6.556;2023-05-07T03:07:35;20.20;;;17.95;;
8564;SDS011;4320;51.498;6.556;2023-05-07T03:10:02;20.85;;;18.02;;
8564;SDS011;4320;51.498;6.556;2023-05-07T03:12:28;20.15;;;16.77;;
8564;SDS011;4320;51.498;6.556;2023-05-07T03:14:54;22.88;;;16.77;;
8564;SDS011;4320;51.498;6.556;2023-05-07T03:17:20;22.08;;;19.50;;
8564;SDS011;4320;51.498;6.556;2023-05-07T03:19:46;19.48;;;17.35;;
8564;SDS011;4320;51.498;6.556;2023-05-07T03:22:12;22.90;;;17.65;;
8564;SDS011;4320;51.498;6.556;2023-05-07T03:24:37;21.70;;;17.55;;
8564;SDS011;4320;51.498;6.556;2023-05-07T03:27:03;23.45;;;18.70;;
8564;SDS011;4320;51.498;6.556;2023-05-07T03:29:28;20.85;;;17.15;;
8564;SDS011;4320;51.498;6.556;2023-05-07T03:31:54;21.55;;;17.52;;
8564;SDS011;4320;51.498;6.556;2023-05-07T03:34:20;23.48;;;17.88;;
8564;SDS011;4320;51.498;6.556;2023-05-07T03:36:49;23.08;;;18.63;;
8564;SDS011;4320;51.498;6.556;2023-05-07T03:39:15;22.90;;;18.05;;
8564;SDS011;4320;51.498;6.556;2023-05-07T03:41:41;21.02;;;17.15;;
8564;SDS011;4320;51.498;6.556;2023-05-07T03:44:06;23.80;;;17.77;;
8564;SDS011;4320;51.498;6.556;2023-05-07T03:46:32;24.92;;;18.45;;
8564;SDS011;4320;51.498;6.556;2023-05-07T03:48:58;22.90;;;18.20;;
8564;SDS011;4320;51.498;6.556;2023-05-07T03:51:24;21.65;;;18.45;;
8564;SDS011;4320;51.498;6.556;2023-05-07T03:53:51;23.15;;;18.02;;
8564;SDS011;4320;51.498;6.556;2023-05-07T03:56:22;23.00;;;17.70;;
8564;SDS011;4320;51.498;6.556;2023-05-07T03:58:51;22.58;;;18.15;;
8564;SDS011;4320;51.498;6.556;2023-05-07T04:01:17;21.73;;;17.67;;
8564;SDS011;4320;51.498;6.556;2023-05-07T04:03:42;21.63;;;17.35;;
8564;SDS011;4320;51.498;6.556;2023-05-07T04:06:08;24.35;;;18.55;;
8564;SDS011;4320;51.498;6.556;2023-05-07T04:08:34;22.50;;;18.20;;
8564;SDS011;4320;51.498;6.556;2023-05-07T04:10:59;22.08;;;18.25;;
8564;SDS011;4320;51.498;6.556;2023-05-07T04:13:25;25.33;;;18.60;;
8564;SDS011;4320;51.498;6.556;2023-05-07T04:15:51;22.90;;;18.77;;
8564;SDS011;4320;51.498;6.556;2023-05-07T04:18:17;28.27;;;18.88;;
8564;SDS011;4320;51.498;6.556;2023-05-07T04:20:43;22.45;;;18.63;;
8564;SDS011;4320;51.498;6.556;2023-05-07T04:23:09;23.10;;;19.58;;
8564;SDS011;4320;51.498;6.556;2023-05-07T04:25:35;22.17;;;19.02;;
8564;SDS011;4320;51.498;6.556;2023-05-07T04:28:00;23.70;;;19.30;;
8564;SDS011;4320;51.498;6.556;2023-05-07T04:30:26;26.55;;;19.52;;
8564;SDS011;4320;51.498;6.556;2023-05-07T04:32:52;23.00;;;19.27;;
8564;SDS011;4320;51.498;6.556;2023-05-07T04:35:18;23.35;;;19.83;;
8564;SDS011;4320;51.498;6.556;2023-05-07T04:37:43;23.83;;;18.35;;
8564;SDS011;4320;51.498;6.556;2023-05-07T04:40:09;24.45;;;19.75;;
8564;SDS011;4320;51.498;6.556;2023-05-07T04:42:35;25.98;;;19.70;;
8564;SDS011;4320;51.498;6.556;2023-05-07T04:45:01;28.60;;;20.08;;
8564;SDS011;4320;51.498;6.556;2023-05-07T04:47:27;25.92;;;20.10;;
8564;SDS011;4320;51.498;6.556;2023-05-07T04:49:53;25.50;;;19.45;;
8564;SDS011;4320;51.498;6.556;2023-05-07T04:52:18;26.63;;;21.05;;
8564;SDS011;4320;51.498;6.556;2023-05-07T04:54:44;24.77;;;19.23;;
8564;SDS011;4320;51.498;6.556;2023-05-07T04:57:10;25.70;;;20.02;;
8564;SDS011;4320;51.498;6.556;2023-05-07T04:59:38;23.33;;;19.08;;
8564;SDS011;4320;51.498;6.556;2023-05-07T05:02:04;27.08;;;19.90;;
8564;SDS011;4320;51.498;6.556;2023-05-07T05:04:29;22.48;;;19.23;;
8564;SDS011;4320;51.498;6.556;2023-05-07T05:06:55;22.27;;;18.80;;
8564;SDS011;4320;51.498;6.556;2023-05-07T05:09:21;22.00;;;19.48;;
8564;SDS011;4320;51.498;6.556;2023-05-07T05:11:46;23.98;;;19.17;;
8564;SDS011;4320;51.498;6.556;2023-05-07T05:14:12;27.30;;;18.92;;
8564;SDS011;4320;51.498;6.556;2023-05-07T05:16:38;24.95;;;20.13;;
8564;SDS011;4320;51.498;6.556;2023-05-07T05:19:03;22.20;;;19.63;;
8564;SDS011;4320;51.498;6.556;2023-05-07T05:21:29;26.67;;;19.60;;
8564;SDS011;4320;51.498;6.556;2023-05-07T05:23:56;24.15;;;18.65;;
8564;SDS011;4320;51.498;6.556;2023-05-07T05:26:21;26.65;;;20.15;;
8564;SDS011;4320;51.498;6.556;2023-05-07T05:28:47;25.33;;;19.52;;
8564;SDS011;4320;51.498;6.556;2023-05-07T05:31:12;23.60;;;17.63;;
8564;SDS011;4320;51.498;6.556;2023-05-07T05:33:39;23.77;;;16.33;;
8564;SDS011;4320;51.498;6.556;2023-05-07T05:36:05;23.00;;;17.20;;
8564;SDS011;4320;51.498;6.556;2023-05-07T05:38:31;19.00;;;16.40;;
8564;SDS011;4320;51.498;6.556;2023-05-07T05:40:56;19.70;;;15.13;;
8564;SDS011;4320;51.498;6.556;2023-05-07T05:43:22;21.20;;;15.50;;
8564;SDS011;4320;51.498;6.556;2023-05-07T05:45:48;20.27;;;15.88;;
8564;SDS011;4320;51.498;6.556;2023-05-07T05:48:13;18.13;;;14.98;;
8564;SDS011;4320;51.498;6.556;2023-05-07T05:50:39;15.65;;;13.95;;
8564;SDS011;4320;51.498;6.556;2023-05-07T05:53:05;20.17;;;14.50;;
8564;SDS011;4320;51.498;6.556;2023-05-07T05:55:30;19.80;;;14.18;;
8564;SDS011;4320;51.498;6.556;2023-05-07T05:57:57;19.67;;;14.68;;
8564;SDS011;4320;51.498;6.556;2023-05-07T06:00:23;16.42;;;13.23;;
8564;SDS011;4320;51.498;6.556;2023-05-07T06:02:49;16.45;;;13.18;;
8564;SDS011;4320;51.498;6.556;2023-05-07T06:05:15;17.25;;;13.55;;
8564;SDS011;4320;51.498;6.556;2023-05-07T06:07:40;15.80;;;12.85;;
8564;SDS011;4320;51.498;6.556;2023-05-07T06:10:06;16.42;;;12.20;;
8564;SDS011;4320;51.498;6.556;2023-05-07T06:12:32;26.75;;;18.17;;
8564;SDS011;4320;51.498;6.556;2023-05-07T06:14:58;25.40;;;15.98;;
8564;SDS011;4320;51.498;6.556;2023-05-07T06:17:23;20.10;;;15.15;;
8564;SDS011;4320;51.498;6.556;2023-05-07T06:19:49;21.50;;;14.23;;
8564;SDS011;4320;51.498;6.556;2023-05-07T06:22:15;18.65;;;13.07;;
8564;SDS011;4320;51.498;6.556;2023-05-07T06:24:40;20.30;;;15.38;;
8564;SDS011;4320;51.498;6.556;2023-05-07T06:27:06;19.55;;;15.27;;
8564;SDS011;4320;51.498;6.556;2023-05-07T06:29:31;20.52;;;15.48;;
8564;SDS011;4320;51.498;6.556;2023-05-07T06:32:07;19.33;;;14.98;;
8564;SDS011;4320;51.498;6.556;2023-05-07T06:34:36;18.75;;;14.35;;
8564;SDS011;4320;51.498;6.556;2023-05-07T06:37:02;19.70;;;15.13;;
8564;SDS011;4320;51.498;6.556;2023-05-07T06:39:28;19.92;;;15.05;;
8564;SDS011;4320;51.498;6.556;2023-05-07T06:41:54;20.17;;;13.98;;
8564;SDS011;4320;51.498;6.556;2023-05-07T06:44:20;22.80;;;13.88;;
8564;SDS011;4320;51.498;6.556;2023-05-07T06:46:46;17.30;;;13.60;;
8564;SDS011;4320;51.498;6.556;2023-05-07T06:49:12;21.98;;;15.00;;
8564;SDS011;4320;51.498;6.556;2023-05-07T06:51:38;18.13;;;14.45;;
8564;SDS011;4320;51.498;6.556;2023-05-07T06:54:07;18.05;;;13.40;;
8564;SDS011;4320;51.498;6.556;2023-05-07T06:56:33;16.88;;;11.88;;
8564;SDS011;4320;51.498;6.556;2023-05-07T06:58:59;14.75;;;11.07;;
8564;SDS011;4320;51.498;6.556;2023-05-07T07:01:26;19.10;;;12.80;;
8564;SDS011;4320;51.498;6.556;2023-05-07T07:03:51;22.25;;;15.00;;
8564;SDS011;4320;51.498;6.556;2023-05-07T07:06:17;21.40;;;14.73;;
8564;SDS011;4320;51.498;6.556;2023-05-07T07:08:43;20.67;;;14.75;;
8564;SDS011;4320;51.498;6.556;2023-05-07T07:11:10;23.08;;;13.77;;
8564;SDS011;4320;51.498;6.556;2023-05-07T07:13:36;17.58;;;12.70;;
8564;SDS011;4320;51.498;6.556;2023-05-07T07:16:02;18.70;;;12.52;;
8564;SDS011;4320;51.498;6.556;2023-05-07T07:18:28;17.40;;;12.52;;
8564;SDS011;4320;51.498;6.556;2023-05-07T07:20:53;18.75;;;12.10;;
8564;SDS011;4320;51.498;6.556;2023-05-07T07:23:19;19.80;;;12.93;;
8564;SDS011;4320;51.498;6.556;2023-05-07T07:25:45;23.55;;;15.50;;
8564;SDS011;4320;51.498;6.556;2023-05-07T07:28:11;19.98;;;11.52;;
8564;SDS011;4320;51.498;6.556;2023-05-07T07:30:37;15.40;;;10.93;;
8564;SDS011;4320;51.498;6.556;2023-05-07T07:33:03;15.25;;;10.60;;
8564;SDS011;4320;51.498;6.556;2023-05-07T07:35:29;14.43;;;10.32;;
8564;SDS011;4320;51.498;6.556;2023-05-07T07:37:55;14.10;;;9.07;;
8564;SDS011;4320;51.498;6.556;2023-05-07T07:40:20;12.18;;;8.60;;
8564;SDS011;4320;51.498;6.556;2023-05-07T07:42:46;13.70;;;8.35;;
8564;SDS011;4320;51.498;6.556;2023-05-07T07:45:12;12.57;;;8.07;;
8564;SDS011;4320;51.498;6.556;2023-05-07T07:47:38;11.82;;;7.65;;
8564;SDS011;4320;51.498;6.556;2023-05-07T07:50:07;10.52;;;7.03;;
8564;SDS011;4320;51.498;6.556;2023-05-07T07:52:33;9.38;;;6.97;;
8564;SDS011;4320;51.498;6.556;2023-05-07T07:54:59;11.40;;;7.47;;
8564;SDS011;4320;51.498;6.556;2023-05-07T07:57:24;11.02;;;7.10;;
8564;SDS011;4320;51.498;6.556;2023-05-07T07:59:50;11.38;;;7.70;;
8564;SDS011;4320;51.498;6.556;2023-05-07T08:02:16;9.68;;;6.35;;
8564;SDS011;4320;51.498;6.556;2023-05-07T08:04:42;7.10;;;4.53;;
8564;SDS011;4320;51.498;6.556;2023-05-07T08:07:11;5.13;;;4.10;;
8564;SDS011;4320;51.498;6.556;2023-05-07T08:09:37;4.68;;;3.50;;
8564;SDS011;4320;51.498;6.556;2023-05-07T08:12:03;7.38;;;4.10;;
8564;SDS011;4320;51.498;6.556;2023-05-07T08:14:30;5.25;;;3.67;;
8564;SDS011;4320;51.498;6.556;2023-05-07T08:16:55;6.00;;;3.45;;
8564;SDS011;4320;51.498;6.556;2023-05-07T08:19:21;5.72;;;4.15;;
8564;SDS011;4320;51.498;6.556;2023-05-07T08:21:47;5.68;;;4.03;;
8564;SDS011;4320;51.498;6.556;2023-05-07T08:24:13;4.55;;;3.58;;
8564;SDS011;4320;51.498;6.556;2023-05-07T08:26:40;4.80;;;3.35;;
8564;SDS011;4320;51.498;6.556;2023-05-07T08:29:06;4.82;;;3.60;;
8564;SDS011;4320;51.498;6.556;2023-05-07T08:31:31;5.75;;;4.00;;
8564;SDS011;4320;51.498;6.556;2023-05-07T08:33:57;5.40;;;3.97;;
8564;SDS011;4320;51.498;6.556;2023-05-07T08:36:23;4.13;;;3.33;;
8564;SDS011;4320;51.498;6.556;2023-05-07T08:38:50;5.05;;;3.50;;
8564;SDS011;4320;51.498;6.556;2023-05-07T08:41:16;5.95;;;3.30;;
8564;SDS011;4320;51.498;6.556;2023-05-07T08:43:41;3.78;;;3.10;;
8564;SDS011;4320;51.498;6.556;2023-05-07T08:46:21;6.15;;;3.47;;
8564;SDS011;4320;51.498;6.556;2023-05-07T08:48:48;4.22;;;3.70;;
8564;SDS011;4320;51.498;6.556;2023-05-07T08:51:16;6.38;;;4.10;;
8564;SDS011;4320;51.498;6.556;2023-05-07T08:53:46;7.97;;;3.78;;
8564;SDS011;4320;51.498;6.556;2023-05-07T08:56:16;9.30;;;4.30;;
8564;SDS011;4320;51.498;6.556;2023-05-07T08:58:43;5.72;;;3.70;;
8564;SDS011;4320;51.498;6.556;2023-05-07T09:01:10;7.40;;;3.85;;
8564;SDS011;4320;51.498;6.556;2023-05-07T09:03:38;7.90;;;4.47;;
8564;SDS011;4320;51.498;6.556;2023-05-07T09:06:05;5.90;;;4.10;;
8564;SDS011;4320;51.498;6.556;2023-05-07T09:08:32;5.70;;;3.97;;
8564;SDS011;4320;51.498;6.556;2023-05-07T09:10:58;7.18;;;3.90;;
8564;SDS011;4320;51.498;6.556;2023-05-07T09:13:24;4.32;;;3.45;;
8564;SDS011;4320;51.498;6.556;2023-05-07T09:15:49;7.80;;;4.18;;
8564;SDS011;4320;51.498;6.556;2023-05-07T09:18:15;6.25;;;4.28;;
8564;SDS011;4320;51.498;6.556;2023-05-07T09:20:41;7.63;;;4.30;;
8564;SDS011;4320;51.498;6.556;2023-05-07T09:23:07;11.65;;;4.30;;
8564;SDS011;4320;51.498;6.556;2023-05-07T09:25:33;6.63;;;4.85;;
8564;SDS011;4320;51.498;6.556;2023-05-07T09:28:00;8.07;;;4.55;;
8564;SDS011;4320;51.498;6.556;2023-05-07T09:30:31;7.57;;;4.28;;
8564;SDS011;4320;51.498;6.556;2023-05-07T09:33:00;7.43;;;4.40;;
8564;SDS011;4320;51.498;6.556;2023-05-07T09:35:27;7.65;;;4.78;;
8564;SDS011;4320;51.498;6.556;2023-05-07T09:37:57;8.73;;;4.10;;
8564;SDS011;4320;51.498;6.556;2023-05-07T09:40:28;6.07;;;4.10;;
8564;SDS011;4320;51.498;6.556;2023-05-07T09:42:55;4.15;;;3.70;;
8564;SDS011;4320;51.498;6.556;2023-05-07T09:45:21;6.95;;;3.92;;
8564;SDS011;4320;51.498;6.556;2023-05-07T09:47:48;5.40;;;3.70;;
8564;SDS011;4320;51.498;6.556;2023-05-07T09:50:18;4.63;;;3.75;;
8564;SDS011;4320;51.498;6.556;2023-05-07T09:52:46;4.75;;;3.45;;
8564;SDS011;4320;51.498;6.556;2023-05-07T09:55:12;4.85;;;3.90;;
8564;SDS011;4320;51.498;6.556;2023-05-07T09:57:38;4.90;;;3.17;;
8564;SDS011;4320;51.498;6.556;2023-05-07T10:00:07;6.65;;;3.25;;
8564;SDS011;4320;51.498;6.556;2023-05-07T10:02:34;5.38;;;3.20;;
8564;SDS011;4320;51.498;6.556;2023-05-07T10:05:01;8.27;;;3.88;;
8564;SDS011;4320;51.498;6.556;2023-05-07T10:07:28;6.47;;;3.30;;
8564;SDS011;4320;51.498;6.556;2023-05-07T10:09:55;6.70;;;3.58;;
8564;SDS011;4320;51.498;6.556;2023-05-07T10:12:22;7.18;;;4.35;;
8564;SDS011;4320;51.498;6.556;2023-05-07T10:14:49;5.70;;;3.97;;
8564;SDS011;4320;51.498;6.556;2023-05-07T10:17:17;4.28;;;3.33;;
8564;SDS011;4320;51.498;6.556;2023-05-07T10:19:44;5.50;;;4.00;;
8564;SDS011;4320;51.498;6.556;2023-05-07T10:22:10;4.95;;;3.08;;
8564;SDS011;4320;51.498;6.556;2023-05-07T10:24:37;6.38;;;3.33;;
8564;SDS011;4320;51.498;6.556;2023-05-07T10:27:07;4.80;;;3.10;;
8564;SDS011;4320;51.498;6.556;2023-05-07T10:29:39;9.90;;;5.72;;
8564;SDS011;4320;51.498;6.556;2023-05-07T10:32:41;7.55;;;3.10;;
8564;SDS011;4320;51.498;6.556;2023-05-07T10:35:14;3.92;;;2.95;;
8564;SDS011;4320;51.498;6.556;2023-05-07T10:37:51;4.68;;;2.80;;
8564;SDS011;4320;51.498;6.556;2023-05-07T10:40:17;4.93;;;2.40;;
8564;SDS011;4320;51.498;6.556;2023-05-07T10:42:57;5.68;;;2.90;;
8564;SDS011;4320;51.498;6.556;2023-05-07T10:45:25;3.55;;;2.47;;
8564;SDS011;4320;51.498;6.556;2023-05-07T10:48:24;4.22;;;2.83;;
8564;SDS011;4320;51.498;6.556;2023-05-07T10:50:43;3.50;;;3.15;;
8564;SDS011;4320;51.498;6.556;2023-05-07T10:55:49;4.35;;;3.08;;
8564;SDS011;4320;51.498;6.556;2023-05-07T10:58:23;7.47;;;3.40;;
8564;SDS011;4320;51.498;6.556;2023-05-07T11:00:55;4.30;;;3.00;;
8564;SDS011;4320;51.498;6.556;2023-05-07T11:03:25;7.63;;;3.20;;
8564;SDS011;4320;51.498;6.556;2023-05-07T11:06:10;6.07;;;3.40;;
8564;SDS011;4320;51.498;6.556;2023-05-07T11:08:59;5.97;;;3.20;;
8564;SDS011;4320;51.498;6.556;2023-05-07T11:11:44;5.70;;;2.80;;
8564;SDS011;4320;51.498;6.556;2023-05-07T11:14:42;6.75;;;3.45;;
8564;SDS011;4320;51.498;6.556;2023-05-07T11:17:08;6.43;;;3.08;;
8564;SDS011;4320;51.498;6.556;2023-05-07T11:19:47;5.63;;;3.08;;
8564;SDS011;4320;51.498;6.556;2023-05-07T11:25:01;7.22;;;2.72;;
8564;SDS011;4320;51.498;6.556;2023-05-07T11:27:30;5.65;;;3.00;;
8564;SDS011;4320;51.498;6.556;2023-05-07T11:29:57;5.15;;;2.85;;
8564;SDS011;4320;51.498;6.556;2023-05-07T11:32:27;5.07;;;3.30;;
8564;SDS011;4320;51.498;6.556;2023-05-07T11:34:54;4.78;;;2.92;;
8564;SDS011;4320;51.498;6.556;2023-05-07T11:37:21;5.65;;;2.72;;
8564;SDS011;4320;51.498;6.556;2023-05-07T11:39:48;3.78;;;2.90;;
8564;SDS011;4320;51.498;6.556;2023-05-07T11:42:30;4.85;;;2.65;;
8564;SDS011;4320;51.498;6.556;2023-05-07T11:44:57;4.03;;;2.50;;
8564;SDS011;4320;51.498;6.556;2023-05-07T11:47:23;5.47;;;2.60;;
8564;SDS011;4320;51.498;6.556;2023-05-07T11:49:51;4.10;;;2.70;;
8564;SDS011;4320;51.498;6.556;2023-05-07T11:52:18;4.13;;;2.63;;
8564;SDS011;4320;51.498;6.556;2023-05-07T11:54:48;5.10;;;2.90;;
8564;SDS011;4320;51.498;6.556;2023-05-07T11:57:18;4.95;;;3.03;;
8564;SDS011;4320;51.498;6.556;2023-05-07T11:59:44;4.32;;;2.80;;
8564;SDS011;4320;51.498;6.556;2023-05-07T12:02:09;3.80;;;3.00;;
8564;SDS011;4320;51.498;6.556;2023-05-07T12:04:35;3.78;;;2.78;;
8564;SDS011;4320;51.498;6.556;2023-05-07T12:07:03;4.47;;;2.72;;
8564;SDS011;4320;51.498;6.556;2023-05-07T12:09:28;3.75;;;2.72;;
8564;SDS011;4320;51.498;6.556;2023-05-07T12:11:54;3.92;;;2.58;;
8564;SDS011;4320;51.498;6.556;2023-05-07T12:14:21;4.97;;;2.75;;
8564;SDS011;4320;51.498;6.556;2023-05-07T12:16:46;4.35;;;2.90;;
8564;SDS011;4320;51.498;6.556;2023-05-07T12:19:13;2.88;;;2.55;;
8564;SDS011;4320;51.498;6.556;2023-05-07T12:21:39;3.53;;;2.70;;
8564;SDS011;4320;51.498;6.556;2023-05-07T12:24:05;5.18;;;3.28;;
8564;SDS011;4320;51.498;6.556;2023-05-07T12:26:31;3.17;;;2.88;;
8564;SDS011;4320;51.498;6.556;2023-05-07T12:28:57;2.55;;;2.17;;
8564;SDS011;4320;51.498;6.556;2023-05-07T12:31:25;5.78;;;2.70;;
8564;SDS011;4320;51.498;6.556;2023-05-07T12:33:51;3.50;;;2.80;;
8564;SDS011;4320;51.498;6.556;2023-05-07T12:36:16;3.78;;;2.60;;
8564;SDS011;4320;51.498;6.556;2023-05-07T12:38:42;4.03;;;2.72;;
8564;SDS011;4320;51.498;6.556;2023-05-07T12:41:08;2.70;;;2.50;;
8564;SDS011;4320;51.498;6.556;2023-05-07T12:43:35;6.78;;;3.08;;
8564;SDS011;4320;51.498;6.556;2023-05-07T12:46:03;3.25;;;2.60;;
8564;SDS011;4320;51.498;6.556;2023-05-07T12:48:30;3.58;;;2.40;;
8564;SDS011;4320;51.498;6.556;2023-05-07T12:50:57;3.40;;;2.30;;
8564;SDS011;4320;51.498;6.556;2023-05-07T12:53:24;3.53;;;2.20;;
8564;SDS011;4320;51.498;6.556;2023-05-07T12:55:52;2.65;;;2.30;;
8564;SDS011;4320;51.498;6.556;2023-05-07T12:58:20;7.05;;;4.53;;
8564;SDS011;4320;51.498;6.556;2023-05-07T13:00:51;3.42;;;2.63;;
8564;SDS011;4320;51.498;6.556;2023-05-07T13:03:30;3.80;;;2.47;;
8564;SDS011;4320;51.498;6.556;2023-05-07T13:05:58;4.20;;;2.28;;
8564;SDS011;4320;51.498;6.556;2023-05-07T13:10:51;2.78;;;2.22;;
8564;SDS011;4320;51.498;6.556;2023-05-07T13:13:18;3.40;;;2.28;;
8564;SDS011;4320;51.498;6.556;2023-05-07T13:15:45;3.25;;;2.30;;
8564;SDS011;4320;51.498;6.556;2023-05-07T13:18:10;2.53;;;2.28;;
8564;SDS011;4320;51.498;6.556;2023-05-07T13:20:36;2.53;;;2.33;;
8564;SDS011;4320;51.498;6.556;2023-05-07T13:23:02;3.90;;;2.40;;
8564;SDS011;4320;51.498;6.556;2023-05-07T13:25:29;4.50;;;2.25;;
8564;SDS011;4320;51.498;6.556;2023-05-07T13:27:56;3.63;;;2.40;;
8564;SDS011;4320;51.498;6.556;2023-05-07T13:30:22;2.60;;;2.33;;
8564;SDS011;4320;51.498;6.556;2023-05-07T13:32:47;3.33;;;2.80;;
8564;SDS011;4320;51.498;6.556;2023-05-07T13:35:14;3.92;;;2.20;;
8564;SDS011;4320;51.498;6.556;2023-05-07T13:37:39;2.38;;;2.17;;
8564;SDS011;4320;51.498;6.556;2023-05-07T13:40:06;2.42;;;2.20;;
8564;SDS011;4320;51.498;6.556;2023-05-07T13:42:32;5.05;;;3.15;;
8564;SDS011;4320;51.498;6.556;2023-05-07T13:44:58;4.63;;;2.55;;
8564;SDS011;4320;51.498;6.556;2023-05-07T13:47:23;3.75;;;3.22;;
8564;SDS011;4320;51.498;6.556;2023-05-07T13:49:49;3.38;;;2.40;;
8564;SDS011;4320;51.498;6.556;2023-05-07T13:52:15;5.50;;;3.45;;
8564;SDS011;4320;51.498;6.556;2023-05-07T13:54:41;3.92;;;2.95;;
8564;SDS011;4320;51.498;6.556;2023-05-07T13:57:07;5.93;;;2.63;;
8564;SDS011;4320;51.498;6.556;2023-05-07T13:59:33;6.85;;;5.28;;
8564;SDS011;4320;51.498;6.556;2023-05-07T14:01:58;16.13;;;8.52;;
8564;SDS011;4320;51.498;6.556;2023-05-07T14:04:24;4.05;;;3.10;;
8564;SDS011;4320;51.498;6.556;2023-05-07T14:06:50;12.73;;;8.25;;
8564;SDS011;4320;51.498;6.556;2023-05-07T14:09:16;7.00;;;5.32;;
8564;SDS011;4320;51.498;6.556;2023-05-07T14:11:42;14.20;;;9.43;;
8564;SDS011;4320;51.498;6.556;2023-05-07T14:14:07;12.52;;;7.07;;
8564;SDS011;4320;51.498;6.556;2023-05-07T14:16:35;11.80;;;7.68;;
8564;SDS011;4320;51.498;6.556;2023-05-07T14:19:01;9.20;;;6.00;;
8564;SDS011;4320;51.498;6.556;2023-05-07T14:21:27;11.57;;;7.32;;
8564;SDS011;4320;51.498;6.556;2023-05-07T14:23:53;7.10;;;3.75;;
8564;SDS011;4320;51.498;6.556;2023-05-07T14:26:20;5.57;;;4.00;;
8564;SDS011;4320;51.498;6.556;2023-05-07T14:28:45;6.15;;;4.50;;
8564;SDS011;4320;51.498;6.556;2023-05-07T14:31:11;7.35;;;4.55;;
8564;SDS011;4320;51.498;6.556;2023-05-07T14:33:37;12.00;;;8.68;;
8564;SDS011;4320;51.498;6.556;2023-05-07T14:36:03;11.38;;;5.10;;
8564;SDS011;4320;51.498;6.556;2023-05-07T14:38:29;6.40;;;5.32;;
8564;SDS011;4320;51.498;6.556;2023-05-07T14:40:57;8.93;;;6.22;;
8564;SDS011;4320;51.498;6.556;2023-05-07T14:43:23;7.15;;;5.32;;
8564;SDS011;4320;51.498;6.556;2023-05-07T14:45:49;6.82;;;4.60;;
8564;SDS011;4320;51.498;6.556;2023-05-07T14:48:15;9.88;;;5.63;;
8564;SDS011;4320;51.498;6.556;2023-05-07T14:50:43;6.93;;;4.60;;
8564;SDS011;4320;51.498;6.556;2023-05-07T14:53:11;5.60;;;5.00;;
8564;SDS011;4320;51.498;6.556;2023-05-07T14:55:37;6.78;;;3.88;;
8564;SDS011;4320;51.498;6.556;2023-05-07T14:58:03;6.30;;;3.55;;
8564;SDS011;4320;51.498;6.556;2023-05-07T15:00:29;6.35;;;3.45;;
8564;SDS011;4320;51.498;6.556;2023-05-07T15:02:56;4.72;;;3.80;;
8564;SDS011;4320;51.498;6.556;2023-05-07T15:05:30;4.35;;;3.50;;
8564;SDS011;4320;51.498;6.556;2023-05-07T15:07:55;6.03;;;3.35;;